createdAt,value
2019-05-19T00:00:48.248Z,306.27
2019-05-19T00:01:48.219Z,307.25
2019-05-19T00:02:48.291Z,307.90
2019-05-19T00:03:48.213Z,306.87
2019-05-19T00:04:48.236Z,307.08
2019-05-19T00:05:48.196Z,307.23
2019-05-19T00:06:48.176Z,307.05
2019-05-19T00:07:48.202Z,306.25
2019-05-19T00:08:48.169Z,306.60
2019-05-19T00:09:48.159Z,308.10
2019-05-19T00:10:48.138Z,306.09
2019-05-19T00:11:48.140Z,307.25
2019-05-19T00:12:48.105Z,308.07
2019-05-19T00:13:48.091Z,307.12
2019-05-19T00:14:48.152Z,307.50
2019-05-19T00:15:48.068Z,308.09
2019-05-19T00:16:48.062Z,307.75
2019-05-19T00:17:48.041Z,309.31
2019-05-19T00:18:48.058Z,306.46
2019-05-19T00:19:48.016Z,307.02
2019-05-19T00:20:48.068Z,308.05
2019-05-19T00:21:48.006Z,307.76
2019-05-19T00:22:48.023Z,307.59
2019-05-19T00:23:47.992Z,307.99
2019-05-19T00:24:47.991Z,307.68
2019-05-19T00:25:47.969Z,308.30
2019-05-19T00:26:47.951Z,307.73
2019-05-19T00:27:47.942Z,307.65
2019-05-19T00:28:47.925Z,308.37
2019-05-19T00:29:47.924Z,307.04
2019-05-19T00:30:47.926Z,307.90
2019-05-19T00:31:47.906Z,307.58
2019-05-19T00:32:47.886Z,307.73
2019-05-19T00:33:47.869Z,306.57
2019-05-19T00:34:47.869Z,306.80
2019-05-19T00:35:47.884Z,307.96
2019-05-19T00:36:47.854Z,307.05
2019-05-19T00:37:47.832Z,306.14
2019-05-19T00:38:47.818Z,306.47
2019-05-19T00:39:47.894Z,306.72
2019-05-19T00:40:47.802Z,307.75
2019-05-19T00:41:47.830Z,306.19
2019-05-19T00:42:47.778Z,306.50
2019-05-19T00:43:47.767Z,306.53
2019-05-19T00:44:47.743Z,305.80
2019-05-19T00:45:47.729Z,305.92
2019-05-19T00:46:47.749Z,305.90
2019-05-19T00:47:47.783Z,305.16
2019-05-19T00:48:47.719Z,305.59
2019-05-19T00:49:47.699Z,305.61
2019-05-19T00:50:47.691Z,305.65
2019-05-19T00:51:47.673Z,306.13
2019-05-19T00:52:47.691Z,306.98
2019-05-19T00:53:47.661Z,305.95
2019-05-19T00:54:47.653Z,306.30
2019-05-19T00:55:47.633Z,306.31
2019-05-19T00:56:47.685Z,306.55
2019-05-19T00:57:47.630Z,306.08
2019-05-19T00:58:47.690Z,306.27
2019-05-19T00:59:47.600Z,305.54
2019-05-19T01:00:47.587Z,305.36
2019-05-19T01:01:47.573Z,306.21
2019-05-19T01:02:47.568Z,305.86
2019-05-19T01:03:47.558Z,306.20
2019-05-19T01:04:47.554Z,305.64
2019-05-19T01:05:47.537Z,305.88
2019-05-19T01:06:47.544Z,306.09
2019-05-19T01:07:47.508Z,306.27
2019-05-19T01:08:47.549Z,306.07
2019-05-19T01:09:47.474Z,306.23
2019-05-19T01:10:47.533Z,306.50
2019-05-19T01:11:47.469Z,307.32
2019-05-19T01:12:47.443Z,306.82
2019-05-19T01:13:47.450Z,305.94
2019-05-19T01:14:47.455Z,306.49
2019-05-19T01:15:47.429Z,306.70
2019-05-19T01:16:47.413Z,308.05
2019-05-19T01:17:47.410Z,306.86
2019-05-19T01:18:47.428Z,305.35
2019-05-19T01:19:55.693Z,306.02
2019-05-19T01:20:48.375Z,305.94
2019-05-19T01:21:47.364Z,306.52
2019-05-19T01:22:47.354Z,307.07
2019-05-19T01:23:47.334Z,306.65
2019-05-19T01:24:47.334Z,306.75
2019-05-19T01:25:47.304Z,306.22
2019-05-19T01:26:47.313Z,306.49
2019-05-19T01:27:47.291Z,306.25
2019-05-19T01:28:47.293Z,306.48
2019-05-19T01:29:47.343Z,306.12
2019-05-19T01:30:47.248Z,306.64
2019-05-19T01:31:47.264Z,306.80
2019-05-19T01:32:47.250Z,306.52
2019-05-19T01:33:47.297Z,306.04
2019-05-19T01:34:47.221Z,306.62
2019-05-19T01:35:47.230Z,306.12
2019-05-19T01:36:47.201Z,305.52
2019-05-19T01:37:47.177Z,306.59
2019-05-19T01:38:47.174Z,305.75
2019-05-19T01:39:47.177Z,306.76
2019-05-19T01:40:47.170Z,306.28
2019-05-19T01:41:47.141Z,305.10
2019-05-19T01:42:47.175Z,305.18
2019-05-19T01:43:47.130Z,305.63
2019-05-19T01:44:47.116Z,306.83
2019-05-19T01:45:47.122Z,306.42
2019-05-19T01:46:47.100Z,306.89
2019-05-19T01:47:47.086Z,305.32
2019-05-19T01:48:47.061Z,305.68
2019-05-19T01:49:47.048Z,305.67
2019-05-19T01:50:47.060Z,306.73
2019-05-19T01:51:47.067Z,305.46
2019-05-19T01:52:47.050Z,304.98
2019-05-19T01:53:47.024Z,306.00
2019-05-19T01:54:47.023Z,306.06
2019-05-19T01:55:46.998Z,305.09
2019-05-19T01:56:46.979Z,306.53
2019-05-19T01:57:47.006Z,305.67
2019-05-19T01:58:46.967Z,305.96
2019-05-19T01:59:46.966Z,306.00
2019-05-19T02:00:46.980Z,305.48
2019-05-19T02:01:46.931Z,306.23
2019-05-19T02:02:46.947Z,305.67
2019-05-19T02:03:46.921Z,305.81
2019-05-19T02:04:46.899Z,306.36
2019-05-19T02:05:46.886Z,305.50
2019-05-19T02:06:46.887Z,305.29
2019-05-19T02:07:46.870Z,305.28
2019-05-19T02:08:46.949Z,305.20
2019-05-19T02:09:46.859Z,305.18
2019-05-19T02:10:46.844Z,306.08
2019-05-19T02:11:46.840Z,306.14
2019-05-19T02:12:46.800Z,305.23
2019-05-19T02:13:46.815Z,305.94
2019-05-19T02:14:46.814Z,305.65
2019-05-19T02:15:46.784Z,305.55
2019-05-19T02:16:46.772Z,305.18
2019-05-19T02:17:46.765Z,305.44
2019-05-19T02:18:46.735Z,305.50
2019-05-19T02:19:46.762Z,304.91
2019-05-19T02:20:46.728Z,305.16
2019-05-19T02:21:46.716Z,305.26
2019-05-19T02:22:46.726Z,304.75
2019-05-19T02:23:46.698Z,305.50
2019-05-19T02:24:46.674Z,305.08
2019-05-19T02:25:46.693Z,304.64
2019-05-19T02:26:46.668Z,305.93
2019-05-19T02:27:46.673Z,305.83
2019-05-19T02:28:46.649Z,305.99
2019-05-19T02:29:46.682Z,304.20
2019-05-19T02:30:46.628Z,304.30
2019-05-19T02:31:46.624Z,304.99
2019-05-19T02:32:46.613Z,305.24
2019-05-19T02:33:46.603Z,304.35
2019-05-19T02:34:46.582Z,304.47
2019-05-19T02:35:46.588Z,304.13
2019-05-19T02:36:46.580Z,304.69
2019-05-19T02:37:46.544Z,304.30
2019-05-19T02:38:46.536Z,304.27
2019-05-19T02:39:46.535Z,303.98
2019-05-19T02:40:46.539Z,305.35
2019-05-19T02:41:46.533Z,305.77
2019-05-19T02:42:46.517Z,304.45
2019-05-19T02:43:46.500Z,304.98
2019-05-19T02:44:46.480Z,304.94
2019-05-19T02:45:46.493Z,304.05
2019-05-19T02:46:46.456Z,304.42
2019-05-19T02:47:46.463Z,304.38
2019-05-19T02:48:46.432Z,303.75
2019-05-19T02:49:46.429Z,303.97
2019-05-19T02:50:52.259Z,303.52
2019-05-19T02:51:47.402Z,304.72
2019-05-19T02:52:46.416Z,303.89
2019-05-19T02:53:46.402Z,303.86
2019-05-19T02:54:46.356Z,304.01
2019-05-19T02:55:46.386Z,303.94
2019-05-19T02:56:46.344Z,304.27
2019-05-19T02:57:46.348Z,304.11
2019-05-19T02:58:46.326Z,303.88
2019-05-19T02:59:46.333Z,304.63
2019-05-19T03:00:46.305Z,304.42
2019-05-19T03:01:46.384Z,304.11
2019-05-19T03:02:46.273Z,304.19
2019-05-19T03:03:46.296Z,304.99
2019-05-19T03:04:46.263Z,304.43
2019-05-19T03:05:46.262Z,304.55
2019-05-19T03:06:46.279Z,304.01
2019-05-19T03:07:46.248Z,305.09
2019-05-19T03:08:46.233Z,305.08
2019-05-19T03:09:46.241Z,304.13
2019-05-19T03:10:46.195Z,304.30
2019-05-19T03:11:46.186Z,304.33
2019-05-19T03:12:46.181Z,303.47
2019-05-19T03:13:46.159Z,303.82
2019-05-19T03:14:46.171Z,304.93
2019-05-19T03:15:46.185Z,305.49
2019-05-19T03:16:46.152Z,304.20
2019-05-19T03:17:46.127Z,304.70
2019-05-19T03:18:46.108Z,304.58
2019-05-19T03:19:46.112Z,304.31
2019-05-19T03:20:46.099Z,304.00
2019-05-19T03:21:46.088Z,303.86
2019-05-19T03:22:46.083Z,304.57
2019-05-19T03:23:46.062Z,303.99
2019-05-19T03:24:46.086Z,304.66
2019-05-19T03:25:46.049Z,304.35
2019-05-19T03:26:46.019Z,304.47
2019-05-19T03:27:46.041Z,304.46
2019-05-19T03:28:45.995Z,303.96
2019-05-19T03:29:46.003Z,303.99
2019-05-19T03:30:45.984Z,304.94
2019-05-19T03:31:46.012Z,304.26
2019-05-19T03:34:14.709Z,303.99
2019-05-19T03:35:14.656Z,303.73
2019-05-19T03:36:14.683Z,304.66
2019-05-19T03:37:46.172Z,304.40
2019-05-19T03:38:17.177Z,304.76
2019-05-19T03:39:14.655Z,305.10
2019-05-19T03:40:15.171Z,304.17
2019-05-19T03:41:14.726Z,305.03
2019-05-19T03:42:14.839Z,305.46
2019-05-19T03:43:14.595Z,304.44
2019-05-19T03:44:14.637Z,304.48
2019-05-19T03:45:15.175Z,305.35
2019-05-19T03:46:14.575Z,304.09
2019-05-19T03:47:14.739Z,305.33
2019-05-19T03:48:14.564Z,304.79
2019-05-19T03:49:16.172Z,304.67
2019-05-19T03:50:14.517Z,304.71
2019-05-19T03:51:29.374Z,305.84
2019-05-19T03:52:16.734Z,305.90
2019-05-19T03:53:15.476Z,304.61
2019-05-19T03:54:14.477Z,305.21
2019-05-19T03:55:16.243Z,304.85
2019-05-19T03:56:14.455Z,305.65
2019-05-19T03:57:14.473Z,306.21
2019-05-19T03:58:14.433Z,305.22
2019-05-19T03:59:14.415Z,305.90
2019-05-19T04:00:14.429Z,305.20
2019-05-19T04:01:14.430Z,305.76
2019-05-19T04:02:14.466Z,305.19
2019-05-19T04:03:14.389Z,305.41
2019-05-19T04:04:14.368Z,305.49
2019-05-19T04:05:14.402Z,305.58
2019-05-19T04:06:14.349Z,305.77
2019-05-19T04:07:14.348Z,305.68
2019-05-19T04:08:14.393Z,305.86
2019-05-19T04:09:17.294Z,305.95
2019-05-19T04:10:14.350Z,305.31
2019-05-19T04:11:14.354Z,305.77
2019-05-19T04:12:14.345Z,306.51
2019-05-19T04:13:14.356Z,306.10
2019-05-19T04:14:14.287Z,306.88
2019-05-19T04:15:14.293Z,307.21
2019-05-19T04:16:14.231Z,306.52
2019-05-19T04:17:14.252Z,306.51
2019-05-19T04:18:14.246Z,306.51
2019-05-19T04:19:14.223Z,305.87
2019-05-19T04:20:14.240Z,306.77
2019-05-19T04:21:14.189Z,305.66
2019-05-19T04:22:14.183Z,306.47
2019-05-19T04:23:14.210Z,306.66
2019-05-19T04:24:14.186Z,306.77
2019-05-19T04:25:14.146Z,306.46
2019-05-19T04:26:14.156Z,306.37
2019-05-19T04:27:14.241Z,306.33
2019-05-19T04:28:14.136Z,306.37
2019-05-19T04:29:14.149Z,306.74
2019-05-19T04:30:14.133Z,306.19
2019-05-19T04:31:14.093Z,305.49
2019-05-19T04:32:14.062Z,305.81
2019-05-19T04:33:14.100Z,305.81
2019-05-19T04:34:14.065Z,305.73
2019-05-19T04:35:14.115Z,305.72
2019-05-19T04:36:14.027Z,305.87
2019-05-19T04:37:14.013Z,306.04
2019-05-19T04:38:14.039Z,305.06
2019-05-19T04:39:13.987Z,305.57
2019-05-19T04:40:14.009Z,305.60
2019-05-19T04:41:14.021Z,305.89
2019-05-19T04:42:13.967Z,305.61
2019-05-19T04:43:13.964Z,305.30
2019-05-19T04:44:13.954Z,305.99
2019-05-19T04:45:13.928Z,305.53
2019-05-19T04:46:14.011Z,305.80
2019-05-19T04:47:13.912Z,305.58
2019-05-19T04:48:13.906Z,305.73
2019-05-19T04:49:13.885Z,305.31
2019-05-19T04:50:13.881Z,306.04
2019-05-19T04:51:13.888Z,305.30
2019-05-19T04:52:13.870Z,305.36
2019-05-19T04:53:13.850Z,305.34
2019-05-19T04:54:13.841Z,305.21
2019-05-19T04:55:13.827Z,305.25
2019-05-19T04:56:13.830Z,304.85
2019-05-19T04:57:13.845Z,305.06
2019-05-19T04:58:13.796Z,304.92
2019-05-19T04:59:13.799Z,304.60
2019-05-19T05:00:13.785Z,304.82
2019-05-19T05:01:13.764Z,304.03
2019-05-19T05:02:13.775Z,304.90
2019-05-19T05:03:13.804Z,304.68
2019-05-19T05:04:13.781Z,304.38
2019-05-19T05:05:13.729Z,304.78
2019-05-19T05:06:13.738Z,304.49
2019-05-19T05:07:13.730Z,305.08
2019-05-19T05:08:29.022Z,304.74
2019-05-19T05:09:14.760Z,305.39
2019-05-19T05:10:13.862Z,304.30
2019-05-19T05:11:13.691Z,304.27
2019-05-19T05:12:13.698Z,304.38
2019-05-19T05:13:13.662Z,303.87
2019-05-19T05:14:13.654Z,304.89
2019-05-19T05:15:13.616Z,303.50
2019-05-19T05:16:13.614Z,303.90
2019-05-19T05:17:13.644Z,305.10
2019-05-19T05:18:13.628Z,304.41
2019-05-19T05:19:13.603Z,303.61
2019-05-19T05:20:13.560Z,304.05
2019-05-19T05:21:13.561Z,304.55
2019-05-19T05:22:21.806Z,304.02
2019-05-19T05:23:14.570Z,304.02
2019-05-19T05:24:13.541Z,304.27
2019-05-19T05:25:13.556Z,304.00
2019-05-19T05:26:13.521Z,304.32
2019-05-19T05:27:13.693Z,303.19
2019-05-19T05:28:13.535Z,304.32
2019-05-19T05:29:13.551Z,304.09
2019-05-19T05:30:13.502Z,303.38
2019-05-19T05:31:15.547Z,304.69
2019-05-19T05:32:13.489Z,304.90
2019-05-19T05:33:13.443Z,304.62
2019-05-19T05:34:13.759Z,303.83
2019-05-19T05:35:13.457Z,304.01
2019-05-19T05:36:13.439Z,304.05
2019-05-19T05:37:13.421Z,303.71
2019-05-19T05:38:13.371Z,304.36
2019-05-19T05:39:13.422Z,303.45
2019-05-19T05:40:13.419Z,304.06
2019-05-19T05:41:13.370Z,304.13
2019-05-19T05:42:13.371Z,304.63
2019-05-19T05:43:13.385Z,303.79
2019-05-19T05:44:13.310Z,302.54
2019-05-19T05:45:13.397Z,303.10
2019-05-19T05:46:13.323Z,303.98
2019-05-19T05:47:13.371Z,303.92
2019-05-19T05:48:13.335Z,302.85
2019-05-19T05:49:13.246Z,304.18
2019-05-19T05:50:13.376Z,303.16
2019-05-19T05:51:13.293Z,303.75
2019-05-19T05:52:13.350Z,303.52
2019-05-19T05:53:13.356Z,303.79
2019-05-19T05:54:13.218Z,303.33
2019-05-19T05:55:13.299Z,303.75
2019-05-19T05:56:13.247Z,303.60
2019-05-19T05:57:13.223Z,303.64
2019-05-19T05:58:13.232Z,303.00
2019-05-19T05:59:13.220Z,303.97
2019-05-19T06:00:15.728Z,303.98
2019-05-19T06:01:13.143Z,303.95
2019-05-19T06:02:13.202Z,304.41
2019-05-19T06:03:13.106Z,304.58
2019-05-19T06:04:13.133Z,304.14
2019-05-19T06:05:13.135Z,303.30
2019-05-19T06:06:13.125Z,303.41
2019-05-19T06:07:13.088Z,303.99
2019-05-19T06:08:13.113Z,303.99
2019-05-19T06:09:13.059Z,303.46
2019-05-19T06:10:13.061Z,303.44
2019-05-19T06:11:13.064Z,304.58
2019-05-19T06:12:13.092Z,303.42
2019-05-19T06:13:13.019Z,304.13
2019-05-19T06:14:13.037Z,303.96
2019-05-19T06:15:12.998Z,303.38
2019-05-19T06:16:12.979Z,303.59
2019-05-19T06:17:12.982Z,303.70
2019-05-19T06:18:13.019Z,303.38
2019-05-19T06:19:12.952Z,303.07
2019-05-19T06:20:12.927Z,303.23
2019-05-19T06:21:12.925Z,303.05
2019-05-19T06:22:12.915Z,302.99
2019-05-19T06:23:12.975Z,303.19
2019-05-19T06:24:12.906Z,303.11
2019-05-19T06:25:12.922Z,303.57
2019-05-19T06:26:12.916Z,303.15
2019-05-19T06:27:12.911Z,303.16
2019-05-19T06:28:12.857Z,302.52
2019-05-19T06:29:12.989Z,302.82
2019-05-19T06:30:12.934Z,304.07
2019-05-19T06:31:12.842Z,302.70
2019-05-19T06:32:12.842Z,302.73
2019-05-19T06:33:12.904Z,303.45
2019-05-19T06:34:12.814Z,304.38
2019-05-19T06:35:12.770Z,303.40
2019-05-19T06:36:12.774Z,303.13
2019-05-19T06:37:12.750Z,303.21
2019-05-19T06:38:12.832Z,303.11
2019-05-19T06:39:12.810Z,302.45
2019-05-19T06:40:12.744Z,303.70
2019-05-19T06:41:12.758Z,303.29
2019-05-19T06:42:12.702Z,303.51
2019-05-19T06:43:12.676Z,303.43
2019-05-19T06:44:12.671Z,304.35
2019-05-19T06:45:12.691Z,304.53
2019-05-19T06:46:12.691Z,303.30
2019-05-19T06:47:12.634Z,304.07
2019-05-19T06:48:12.642Z,303.66
2019-05-19T06:49:12.679Z,304.33
2019-05-19T06:50:12.611Z,303.10
2019-05-19T06:51:12.609Z,303.72
2019-05-19T06:52:12.598Z,303.65
2019-05-19T06:53:14.491Z,303.08
2019-05-19T06:54:12.559Z,302.51
2019-05-19T06:55:12.617Z,303.47
2019-05-19T06:56:12.616Z,303.62
2019-05-19T06:57:12.552Z,303.70
2019-05-19T06:58:12.567Z,303.14
2019-05-19T06:59:12.576Z,303.89
2019-05-19T07:00:12.510Z,302.85
2019-05-19T07:01:12.557Z,302.19
2019-05-19T07:02:12.522Z,302.85
2019-05-19T07:03:12.486Z,302.56
2019-05-19T07:04:12.523Z,303.09
2019-05-19T07:05:12.491Z,302.97
2019-05-19T07:06:12.532Z,302.49
2019-05-19T07:07:12.464Z,302.52
2019-05-19T07:08:12.479Z,302.44
2019-05-19T07:09:12.502Z,302.82
2019-05-19T07:10:12.458Z,302.54
2019-05-19T07:11:13.227Z,302.21
2019-05-19T07:12:12.888Z,302.52
2019-05-19T07:13:12.454Z,302.20
2019-05-19T07:14:12.572Z,302.39
2019-05-19T07:15:12.525Z,301.56
2019-05-19T07:16:12.493Z,302.59
2019-05-19T07:17:12.441Z,302.45
2019-05-19T07:18:12.477Z,302.46
2019-05-19T07:19:13.228Z,302.82
2019-05-19T07:20:12.419Z,301.64
2019-05-19T07:21:12.290Z,302.18
2019-05-19T07:22:12.412Z,301.67
2019-05-19T07:23:25.811Z,303.29
2019-05-19T07:24:13.258Z,302.50
2019-05-19T07:25:12.356Z,302.77
2019-05-19T07:26:12.776Z,302.19
2019-05-19T07:27:12.238Z,301.55
2019-05-19T07:28:12.226Z,302.01
2019-05-19T07:29:12.263Z,300.64
2019-05-19T07:30:12.775Z,301.25
2019-05-19T07:31:12.174Z,300.95
2019-05-19T07:32:12.196Z,299.59
2019-05-19T07:33:12.194Z,300.85
2019-05-19T07:34:12.166Z,300.15
2019-05-19T07:35:12.132Z,300.93
2019-05-19T07:36:12.171Z,301.40
2019-05-19T07:37:12.116Z,300.21
2019-05-19T07:38:12.102Z,300.96
2019-05-19T07:39:12.120Z,301.56
2019-05-19T07:40:12.115Z,301.92
2019-05-19T07:41:12.258Z,302.05
2019-05-19T07:42:12.182Z,301.98
2019-05-19T07:43:12.153Z,298.54
2019-05-19T07:44:12.074Z,300.59
2019-05-19T07:45:12.081Z,300.28
2019-05-19T07:46:12.059Z,299.35
2019-05-19T07:47:12.741Z,300.78
2019-05-19T07:48:12.380Z,301.47
2019-05-19T07:49:15.948Z,300.95
2019-05-19T07:50:20.226Z,300.59
2019-05-19T07:51:12.745Z,301.29
2019-05-19T07:52:31.025Z,300.46
2019-05-19T07:53:20.594Z,301.70
2019-05-19T07:54:11.977Z,301.73
2019-05-19T07:56:30.425Z,298.80
2019-05-19T07:57:30.083Z,300.45
2019-05-19T07:58:30.848Z,299.78
2019-05-19T07:59:30.029Z,301.50
2019-05-19T08:00:30.103Z,301.42
2019-05-19T08:01:30.209Z,301.55
2019-05-19T08:02:30.185Z,298.46
2019-05-19T08:03:30.040Z,300.97
2019-05-19T08:04:30.069Z,298.45
2019-05-19T08:05:29.994Z,300.04
2019-05-19T08:06:29.984Z,297.80
2019-05-19T08:07:30.114Z,300.34
2019-05-19T08:08:30.820Z,299.35
2019-05-19T08:09:29.971Z,300.17
2019-05-19T08:10:30.164Z,299.32
2019-05-19T08:11:30.176Z,300.62
2019-05-19T08:12:30.263Z,299.87
2019-05-19T08:13:29.910Z,299.97
2019-05-19T08:14:29.941Z,298.78
2019-05-19T08:15:29.850Z,298.84
2019-05-19T08:16:29.921Z,298.83
2019-05-19T08:17:29.910Z,298.98
2019-05-19T08:18:29.864Z,298.67
2019-05-19T08:19:29.921Z,299.20
2019-05-19T08:20:30.128Z,298.79
2019-05-19T08:21:29.822Z,299.21
2019-05-19T08:22:29.833Z,299.96
2019-05-19T08:23:29.782Z,299.60
2019-05-19T08:24:30.115Z,298.69
2019-05-19T08:25:29.804Z,300.29
2019-05-19T08:26:29.759Z,299.08
2019-05-19T08:27:30.283Z,300.05
2019-05-19T08:28:29.977Z,298.54
2019-05-19T08:29:29.874Z,298.70
2019-05-19T08:30:29.892Z,299.53
2019-05-19T08:31:29.801Z,298.01
2019-05-19T08:32:29.737Z,298.57
2019-05-19T08:33:29.778Z,296.76
2019-05-19T08:34:29.674Z,295.79
2019-05-19T08:35:29.751Z,298.61
2019-05-19T08:36:29.841Z,297.45
2019-05-19T08:37:29.680Z,298.42
2019-05-19T08:38:30.475Z,298.22
2019-05-19T08:39:29.601Z,299.22
2019-05-19T08:40:29.701Z,297.88
2019-05-19T08:41:29.625Z,296.67
2019-05-19T08:42:30.733Z,297.73
2019-05-19T08:43:30.357Z,298.77
2019-05-19T08:44:31.867Z,298.99
2019-05-19T08:45:29.543Z,298.78
2019-05-19T08:46:30.346Z,297.42
2019-05-19T08:47:30.457Z,298.86
2019-05-19T08:48:29.839Z,298.81
2019-05-19T08:49:29.594Z,298.31
2019-05-19T08:50:29.542Z,296.92
2019-05-19T08:51:29.471Z,298.46
2019-05-19T08:52:29.559Z,297.68
2019-05-19T08:53:29.644Z,299.90
2019-05-19T08:54:29.505Z,298.25
2019-05-19T08:55:29.453Z,297.94
2019-05-19T08:56:30.430Z,299.34
2019-05-19T08:57:29.526Z,298.65
2019-05-19T08:58:29.454Z,297.79
2019-05-19T08:59:29.449Z,299.00
2019-05-19T09:00:29.501Z,298.13
2019-05-19T09:01:29.436Z,298.35
2019-05-19T09:02:29.363Z,298.39
2019-05-19T09:03:30.039Z,299.98
2019-05-19T09:04:29.410Z,297.19
2019-05-19T09:05:29.362Z,298.74
2019-05-19T09:06:29.352Z,299.29
2019-05-19T09:07:29.407Z,299.72
2019-05-19T09:08:29.368Z,298.46
2019-05-19T09:09:29.342Z,299.05
2019-05-19T09:10:29.396Z,301.35
2019-05-19T09:11:29.302Z,299.33
2019-05-19T09:12:29.288Z,298.81
2019-05-19T09:13:29.482Z,300.54
2019-05-19T09:14:29.239Z,301.20
2019-05-19T09:15:29.245Z,297.03
2019-05-19T09:16:29.292Z,299.73
2019-05-19T09:17:29.845Z,299.17
2019-05-19T09:18:29.218Z,298.51
2019-05-19T09:19:29.253Z,299.66
2019-05-19T09:20:29.204Z,298.83
2019-05-19T09:21:29.264Z,298.17
2019-05-19T09:22:30.812Z,300.23
2019-05-19T09:23:29.200Z,299.32
2019-05-19T09:24:30.859Z,298.39
2019-05-19T09:28:19.264Z,301.12
2019-05-19T09:29:17.269Z,299.92
2019-05-19T09:30:17.248Z,299.85
2019-05-19T09:31:17.318Z,298.43
2019-05-19T09:32:17.248Z,299.47
2019-05-19T09:33:17.308Z,297.77
2019-05-19T09:34:17.294Z,297.54
2019-05-19T09:39:03.026Z,299.39
2019-05-19T09:40:02.153Z,299.77
2019-05-19T09:41:39.946Z,298.15
2019-05-19T09:49:26.014Z,300.46
2019-05-19T09:50:29.688Z,298.21
2019-05-19T09:51:25.960Z,300.26
2019-05-19T09:52:25.956Z,300.38
2019-05-19T09:53:28.593Z,299.42
2019-05-19T09:54:25.980Z,299.42
2019-05-19T09:55:25.926Z,299.36
2019-05-19T09:57:47.889Z,296.63
2019-05-19T09:58:43.712Z,298.21
2019-05-19T09:59:43.975Z,298.39
2019-05-19T10:00:45.384Z,299.54
2019-05-19T10:01:43.693Z,300.57
2019-05-19T10:02:43.931Z,300.54
2019-05-19T10:03:44.469Z,299.13
2019-05-19T10:04:45.760Z,299.11
2019-05-19T10:05:43.669Z,298.62
2019-05-19T10:06:44.409Z,299.51
2019-05-19T10:07:44.387Z,298.16
2019-05-19T10:08:43.621Z,300.93
2019-05-19T10:09:44.390Z,300.18
2019-05-19T10:10:43.636Z,298.85
2019-05-19T10:11:43.601Z,300.98
2019-05-19T10:12:43.562Z,298.27
2019-05-19T10:13:43.585Z,299.76
2019-05-19T10:14:43.684Z,300.09
2019-05-19T10:15:43.543Z,299.73
2019-05-19T10:16:43.605Z,299.27
2019-05-19T10:17:43.579Z,298.89
2019-05-19T10:18:43.538Z,299.76
2019-05-19T10:19:43.528Z,300.37
2019-05-19T10:20:43.499Z,297.89
2019-05-19T10:21:43.508Z,300.62
2019-05-19T10:22:43.467Z,299.68
2019-05-19T10:23:43.470Z,297.46
2019-05-19T10:24:59.198Z,299.07
2019-05-19T10:25:44.517Z,299.41
2019-05-19T10:26:43.586Z,298.69
2019-05-19T10:27:43.404Z,299.50
2019-05-19T10:28:43.414Z,300.32
2019-05-19T10:29:43.395Z,300.29
2019-05-19T10:30:43.895Z,299.32
2019-05-19T10:31:43.368Z,300.04
2019-05-19T10:32:43.440Z,300.11
2019-05-19T10:33:43.346Z,299.42
2019-05-19T10:34:43.537Z,299.62
2019-05-19T10:35:43.495Z,297.34
2019-05-19T10:36:43.525Z,300.02
2019-05-19T10:37:43.506Z,300.38
2019-05-19T10:38:43.295Z,300.40
2019-05-19T10:39:43.342Z,297.32
2019-05-19T10:40:43.420Z,298.46
2019-05-19T10:41:43.321Z,300.23
2019-05-19T10:42:43.349Z,300.97
2019-05-19T10:43:43.265Z,300.50
2019-05-19T10:44:43.262Z,300.16
2019-05-19T10:45:43.231Z,298.90
2019-05-19T10:46:43.240Z,299.71
2019-05-19T10:47:43.319Z,300.75
2019-05-19T10:48:43.208Z,300.67
2019-05-19T10:49:43.268Z,299.34
2019-05-19T10:50:43.165Z,298.97
2019-05-19T10:51:43.296Z,297.99
2019-05-19T10:52:43.225Z,298.90
2019-05-19T10:53:43.188Z,299.95
2019-05-19T10:54:43.155Z,300.21
2019-05-19T10:55:43.228Z,299.94
2019-05-19T10:56:43.096Z,299.10
2019-05-19T10:57:43.196Z,298.15
2019-05-19T10:58:43.935Z,299.70
2019-05-19T10:59:44.050Z,295.38
2019-05-19T11:00:43.908Z,295.85
2019-05-19T11:01:43.080Z,298.05
2019-05-19T11:02:43.040Z,300.15
2019-05-19T11:03:43.020Z,298.11
2019-05-19T11:04:43.115Z,298.90
2019-05-19T11:05:43.081Z,299.17
2019-05-19T11:06:43.032Z,299.46
2019-05-19T11:07:43.936Z,299.14
2019-05-19T11:08:43.963Z,298.21
2019-05-19T11:09:43.002Z,299.79
2019-05-19T11:10:43.052Z,295.28
2019-05-19T11:11:42.969Z,301.33
2019-05-19T11:12:42.975Z,298.47
2019-05-19T11:13:42.921Z,299.72
2019-05-19T11:14:43.034Z,300.64
2019-05-19T11:15:42.889Z,298.74
2019-05-19T11:16:43.046Z,300.47
2019-05-19T11:17:42.863Z,301.00
2019-05-19T11:18:43.433Z,298.55
2019-05-19T11:19:42.900Z,299.65
2019-05-19T11:20:42.865Z,300.10
2019-05-19T11:21:42.838Z,298.52
2019-05-19T11:22:42.846Z,300.39
2019-05-19T11:23:42.857Z,299.91
2019-05-19T11:24:42.813Z,300.33
2019-05-19T11:25:51.027Z,296.47
2019-05-19T11:26:43.793Z,300.82
2019-05-19T11:27:45.494Z,299.57
2019-05-19T11:28:42.807Z,298.52
2019-05-19T11:29:42.763Z,299.82
2019-05-19T11:30:42.762Z,298.36
2019-05-19T11:31:42.751Z,300.06
2019-05-19T11:32:42.801Z,296.73
2019-05-19T11:33:42.712Z,299.20
2019-05-19T11:34:42.718Z,298.32
2019-05-19T11:35:42.737Z,299.56
2019-05-19T11:36:42.750Z,298.52
2019-05-19T11:37:43.423Z,297.04
2019-05-19T11:38:42.692Z,298.40
2019-05-19T11:39:42.655Z,297.56
2019-05-19T11:40:42.677Z,297.86
2019-05-19T11:41:42.705Z,298.75
2019-05-19T11:42:42.691Z,296.31
2019-05-19T11:43:42.630Z,298.65
2019-05-19T11:44:42.619Z,297.67
2019-05-19T11:45:42.581Z,298.09
2019-05-19T11:46:42.594Z,298.95
2019-05-19T11:47:42.638Z,299.35
2019-05-19T11:48:42.571Z,297.20
2019-05-19T11:49:42.565Z,296.49
2019-05-19T11:50:42.546Z,299.03
2019-05-19T11:51:42.530Z,295.11
2019-05-19T11:52:42.511Z,295.61
2019-05-19T11:53:42.554Z,297.44
2019-05-19T11:54:42.471Z,296.87
2019-05-19T11:55:42.483Z,297.85
2019-05-19T11:56:42.524Z,297.27
2019-05-19T11:57:42.926Z,301.58
2019-05-19T11:58:42.530Z,295.68
2019-05-19T11:59:42.481Z,292.85
2019-05-19T12:00:42.450Z,299.36
2019-05-19T12:02:06.219Z,302.92
2019-05-19T12:07:47.552Z,294.63
2019-05-19T12:15:49.131Z,293.53
2019-05-19T12:20:13.721Z,297.53
2019-05-19T12:20:17.365Z,295.86
2019-05-19T12:21:15.570Z,294.70
2019-05-19T12:27:59.040Z,293.35
2019-05-19T12:28:19.852Z,296.07
2019-05-19T12:29:19.266Z,293.81
2019-05-19T12:40:46.627Z,288.54
2019-05-19T12:41:17.045Z,288.81
2019-05-19T12:42:16.916Z,289.70
2019-05-19T12:43:17.593Z,292.48
2019-05-19T12:44:22.460Z,294.27
2019-05-19T12:45:17.574Z,285.13
2019-05-19T12:46:16.981Z,291.94
2019-05-19T12:47:16.818Z,288.85
2019-05-19T12:48:16.832Z,288.56
2019-05-19T12:49:16.791Z,292.05
2019-05-19T12:50:16.807Z,286.04
2019-05-19T12:51:16.903Z,291.08
2019-05-19T12:52:16.794Z,295.97
2019-05-19T12:53:16.949Z,293.18
2019-05-19T12:54:16.746Z,292.07
2019-05-19T12:55:16.723Z,291.45
2019-05-19T12:56:16.817Z,292.45
2019-05-19T12:57:16.748Z,285.33
2019-05-19T12:58:17.694Z,289.90
2019-05-19T12:59:16.881Z,290.26
2019-05-19T13:00:16.706Z,284.51
2019-05-19T13:01:16.663Z,279.70
2019-05-19T13:02:18.264Z,291.39
2019-05-19T13:03:16.947Z,287.91
2019-05-19T13:04:19.274Z,286.66
2019-05-19T13:05:16.642Z,288.67
2019-05-19T13:06:17.811Z,290.07
2019-05-19T13:07:16.654Z,289.75
2019-05-19T13:08:16.622Z,289.89
2019-05-19T13:09:17.168Z,291.21
2019-05-19T13:10:16.589Z,293.02
2019-05-19T13:11:16.584Z,293.47
2019-05-19T13:12:16.667Z,290.48
2019-05-19T13:13:16.590Z,289.25
2019-05-19T13:14:17.606Z,294.56
2019-05-19T13:15:16.525Z,288.11
2019-05-19T13:16:16.549Z,292.73